Mary J — WDG4801 — position and weather

sailwx.info

Track history (hours):
 
Tides and Currents Weather Stations Pressure Air Temp Water Temp Dewpoint Dewpoint Depression Visibility Wind Speed Wind Dir Waves Ship Positions

Mary J

Owner: F/V Mary J, LLC, Manahawkin, NJ. More information available from US FCC via Universal Licensing System and Coast Guard Vessel Documentation Center.

Last reported at 2017-Nov-29 13:32 UTC. Time now 2018-Feb-22 13:09 UTC.
Position N 38°56' W 073°60'.
Warning: this ship's position is months out of date.

Type: Other ship. MMSI: 367540250.

Date/timePositionNaut miles runAvg speedWind from/ knotsBaromVisibWave heightAir tempDewpointWater temp
2017-Nov-29 13:32N 38°56' W 073°60'0 1.3
2017-Nov-29 13:23N 38°56' W 073°60'1 3.0
2017-Nov-29 12:57N 38°57' W 074°01'1 1.2
2017-Nov-29 12:29N 38°57' W 074°01'1 3.0
2017-Nov-29 12:00N 38°56' W 074°00'1 1.6
2017-Nov-29 11:30N 38°56' W 074°01'1 1.7
2017-Nov-29 11:00N 38°57' W 074°01'2 3.0
2017-Nov-29 10:30N 38°56' W 074°00'1 1.2
2017-Nov-29 10:00N 38°56' W 074°01'1 2.5
2017-Nov-29 09:30N 38°58' W 074°01'3 0.3
2017-Nov-29 00:12N 38°59' W 074°05'  
2017-Nov-25 15:03N 38°56' W 074°00'0 0.3
2017-Nov-25 14:47N 38°56' W 074°00'1 3.4
2017-Nov-25 14:26N 38°57' W 074°01'1 1.0
2017-Nov-25 12:53N 38°56' W 073°60'1 2.0
2017-Nov-25 12:27N 38°57' W 074°00'1 1.5
2017-Nov-25 12:00N 38°56' W 073°60'1 2.3
2017-Nov-25 11:29N 38°57' W 074°01'2 3.2
2017-Nov-25 11:00N 38°56' W 073°60'0 0.6
2017-Nov-25 10:28N 38°56' W 074°00'1 2.8
2017-Nov-25 09:59N 38°57' W 074°01'2 0.9
2017-Nov-25 07:45N 38°56' W 073°60'0 0.6
2017-Nov-25 07:28N 38°55' W 073°59'1 0.8
2017-Nov-25 05:48N 38°56' W 074°00'1 3.2
2017-Nov-25 05:28N 38°56' W 073°59'0 0.7
2017-Nov-25 04:59N 38°56' W 073°60'0 0.5
2017-Nov-25 04:20N 38°56' W 074°00'1 3.2
2017-Nov-25 04:00N 38°55' W 073°59'1 2.0
2017-Nov-25 03:30N 38°55' W 074°00'  
Track history (hours):
 
Tides and Currents Weather Stations Pressure Air Temp Water Temp Dewpoint Dewpoint Depression Visibility Wind Speed Wind Dir Waves Ship Positions

Mary J

Owner: F/V Mary J, LLC, Manahawkin, NJ. More information available from US FCC via Universal Licensing System and Coast Guard Vessel Documentation Center.

Last reported at 2017-Nov-29 13:32 UTC. Time now 2018-Feb-22 13:09 UTC.
Position N 38°56' W 073°60'.
Warning: this ship's position is months out of date.

Type: Other ship. MMSI: 367540250.

Date/timePositionNaut miles runAvg speedWind from/ knotsBaromVisibWave heightAir tempDewpointWater temp
2017-Nov-29 13:32N 38°56' W 073°60'0 1.3
2017-Nov-29 13:23N 38°56' W 073°60'1 3.0
2017-Nov-29 12:57N 38°57' W 074°01'1 1.2
2017-Nov-29 12:29N 38°57' W 074°01'1 3.0
2017-Nov-29 12:00N 38°56' W 074°00'1 1.6
2017-Nov-29 11:30N 38°56' W 074°01'1 1.7
2017-Nov-29 11:00N 38°57' W 074°01'2 3.0
2017-Nov-29 10:30N 38°56' W 074°00'1 1.2
2017-Nov-29 10:00N 38°56' W 074°01'1 2.5
2017-Nov-29 09:30N 38°58' W 074°01'3 0.3
2017-Nov-29 00:12N 38°59' W 074°05'  
2017-Nov-25 15:03N 38°56' W 074°00'0 0.3
2017-Nov-25 14:47N 38°56' W 074°00'1 3.4
2017-Nov-25 14:26N 38°57' W 074°01'1 1.0
2017-Nov-25 12:53N 38°56' W 073°60'1 2.0
2017-Nov-25 12:27N 38°57' W 074°00'1 1.5
2017-Nov-25 12:00N 38°56' W 073°60'1 2.3
2017-Nov-25 11:29N 38°57' W 074°01'2 3.2
2017-Nov-25 11:00N 38°56' W 073°60'0 0.6
2017-Nov-25 10:28N 38°56' W 074°00'1 2.8
2017-Nov-25 09:59N 38°57' W 074°01'2 0.9
2017-Nov-25 07:45N 38°56' W 073°60'0 0.6
2017-Nov-25 07:28N 38°55' W 073°59'1 0.8
2017-Nov-25 05:48N 38°56' W 074°00'1 3.2
2017-Nov-25 05:28N 38°56' W 073°59'0 0.7
2017-Nov-25 04:59N 38°56' W 073°60'0 0.5
2017-Nov-25 04:20N 38°56' W 074°00'1 3.2
2017-Nov-25 04:00N 38°55' W 073°59'1 2.0
2017-Nov-25 03:30N 38°55' W 074°00'  

Dump ship's entire track history